Time;durP1;ratioP1;P1;durP2;ratioP2;P2;SDS_P1;SDS_P2;PMS_P1;PMS_P2;Temp;Humidity;BMP_temperature;BMP_pressure;BME280_temperature;BME280_humidity;BME280_pressure;Samples;Min_cycle;Max_cycle;Signal;HPM_P1;HPM_P2
2022/10/08 00:01:01;;;;;;;12.75;5.83;;;;;;;8.92;87.49;98897.15;1819571;77;21006;-61
2022/10/08 00:03:30;;;;;;;8.50;5.05;;;;;;;8.90;87.61;98898.47;1776806;79;21125;-60
2022/10/08 00:06:06;;;;;;;8.75;5.35;;;;;;;8.87;87.68;98889.62;1836007;77;20915;-59
2022/10/08 00:08:36;;;;;;;10.00;5.25;;;;;;;8.85;87.88;98881.88;1810107;77;21092;-61
2022/10/08 00:11:10;;;;;;;9.70;5.87;;;;;;;8.87;87.98;98880.27;1810191;77;21005;-59
2022/10/08 00:13:41;;;;;;;10.30;5.62;;;;;;;8.88;88.04;98880.52;1819386;77;21455;-62
2022/10/08 00:16:11;;;;;;;8.58;5.65;;;;;;;8.89;88.03;98876.80;1826614;77;21200;-61
2022/10/08 00:18:40;;;;;;;10.98;5.92;;;;;;;8.86;88.00;98875.97;1818809;77;20853;-61
2022/10/08 00:21:13;;;;;;;9.33;5.60;;;;;;;8.81;88.08;98869.26;1822749;77;20943;-60
2022/10/08 00:23:41;;;;;;;7.67;4.67;;;;;;;8.77;88.15;98874.84;1775001;79;20924;-61
2022/10/08 00:26:08;;;;;;;8.43;5.25;;;;;;;8.74;88.33;98864.67;1829844;77;21328;-61
2022/10/08 00:28:36;;;;;;;12.68;5.53;;;;;;;8.72;88.49;98860.93;1819458;77;21105;-61
2022/10/08 00:31:18;;;;;;;8.85;5.40;;;;;;;8.71;88.63;98851.85;1826890;77;20880;-61
2022/10/08 00:33:51;;;;;;;11.50;5.97;;;;;;;8.68;88.71;98857.70;1822646;77;20900;-60
2022/10/08 00:36:18;;;;;;;13.03;5.72;;;;;;;8.64;88.82;98853.94;1825762;77;20838;-61
2022/10/08 00:38:45;;;;;;;8.45;5.75;;;;;;;8.63;88.93;98857.66;1822631;77;20914;-61
2022/10/08 00:41:20;;;;;;;6.40;5.05;;;;;;;8.61;89.03;98845.09;1831450;77;21100;-61
2022/10/08 00:43:54;;;;;;;9.25;4.80;;;;;;;8.58;89.17;98840.27;1829930;77;20923;-60
2022/10/08 00:46:41;;;;;;;9.28;5.15;;;;;;;8.53;89.37;98837.02;1828114;77;20883;-59
2022/10/08 00:49:15;;;;;;;10.10;5.67;;;;;;;8.51;89.53;98839.67;1833957;77;21584;-61
2022/10/08 00:51:51;;;;;;;8.85;5.53;;;;;;;8.48;89.62;98829.53;1830621;77;20899;-60
2022/10/08 00:54:19;;;;;;;9.50;5.50;;;;;;;8.46;89.83;98828.95;1834981;77;21056;-61
2022/10/08 00:56:52;;;;;;;9.15;5.20;;;;;;;8.43;89.89;98830.83;1830207;77;20971;-62
2022/10/08 00:59:19;;;;;;;8.80;5.17;;;;;;;8.41;90.05;98826.28;1825457;77;21465;-61
2022/10/08 01:01:47;;;;;;;12.60;5.55;;;;;;;8.39;90.21;98827.03;1827631;77;21371;-60
2022/10/08 01:04:14;;;;;;;8.80;5.08;;;;;;;8.37;90.34;98819.81;1819366;77;20906;-60
2022/10/08 01:07:02;;;;;;;9.48;5.35;;;;;;;8.38;90.48;98808.09;1810172;77;21501;-61
2022/10/08 01:09:53;;;;;;;9.90;5.30;;;;;;;8.37;90.58;98805.13;1819417;77;20840;-62
2022/10/08 01:12:55;;;;;;;8.55;5.75;;;;;;;8.33;90.69;98810.20;1842527;77;20989;-61
2022/10/08 01:15:41;;;;;;;9.75;5.80;;;;;;;8.31;90.84;98811.51;1815048;77;20909;-61
2022/10/08 01:18:48;;;;;;;11.73;5.00;;;;;;;8.30;90.84;98807.22;1824872;77;20899;-60
2022/10/08 01:21:27;;;;;;;12.58;6.03;;;;;;;8.24;90.94;98801.02;1830286;77;21576;-59
2022/10/08 01:24:12;;;;;;;8.98;4.87;;;;;;;8.18;91.25;98805.50;1810062;77;20875;-59
2022/10/08 01:26:53;;;;;;;11.22;5.58;;;;;;;8.15;91.41;98800.67;1817294;77;20876;-61
2022/10/08 01:29:28;;;;;;;9.40;5.35;;;;;;;8.12;91.57;98797.20;1828515;77;20923;-59
2022/10/08 01:32:03;;;;;;;11.45;5.30;;;;;;;8.10;91.71;98795.84;1810011;77;20991;-60
2022/10/08 01:34:45;;;;;;;12.05;5.30;;;;;;;8.09;91.82;98793.70;1819389;77;21659;-61
2022/10/08 01:37:17;;;;;;;7.85;5.45;;;;;;;8.08;91.90;98792.07;1800550;79;20927;-61
2022/10/08 01:39:44;;;;;;;12.90;5.83;;;;;;;8.07;92.02;98782.48;1783075;79;20995;-61
2022/10/08 01:42:10;;;;;;;11.22;5.42;;;;;;;8.07;92.12;98789.67;1803600;77;21023;-60
2022/10/08 01:44:45;;;;;;;8.33;5.75;;;;;;;8.06;92.24;98780.86;1825735;77;21020;-60
2022/10/08 01:47:15;;;;;;;11.20;5.30;;;;;;;8.03;92.19;98776.58;1828721;77;22022;-60
2022/10/08 01:49:49;;;;;;;10.23;5.33;;;;;;;7.96;92.45;98778.09;1822166;77;20950;-60
2022/10/08 01:52:26;;;;;;;11.93;5.67;;;;;;;7.97;92.63;98778.91;1827087;77;21411;-60
2022/10/08 01:55:00;;;;;;;13.60;5.25;;;;;;;7.98;92.66;98776.00;1833934;77;21422;-59
2022/10/08 01:57:27;;;;;;;6.22;5.45;;;;;;;7.99;92.80;98778.93;1810630;77;21525;-60
2022/10/08 01:59:58;;;;;;;9.93;5.42;;;;;;;7.99;92.82;98771.45;1837976;77;21096;-59
2022/10/08 02:02:25;;;;;;;9.25;5.83;;;;;;;7.99;92.93;98774.93;1818160;77;20863;-61
2022/10/08 02:04:53;;;;;;;9.55;5.67;;;;;;;8.01;92.99;98771.47;1834012;77;20868;-61
2022/10/08 02:07:36;;;;;;;10.35;5.03;;;;;;;8.04;92.95;98770.97;1832025;77;20871;-59
2022/10/08 02:10:08;;;;;;;7.35;5.05;;;;;;;8.06;92.82;98766.70;1819220;77;20885;-61
2022/10/08 02:12:35;;;;;;;9.15;4.97;;;;;;;8.04;92.87;98766.97;1819474;77;21168;-62
2022/10/08 02:15:06;;;;;;;10.48;5.95;;;;;;;8.06;92.93;98766.70;1810351;77;21382;-61
2022/10/08 02:17:55;;;;;;;12.28;5.78;;;;;;;8.03;92.94;98762.68;1828719;77;21798;-61
2022/10/08 02:20:34;;;;;;;12.43;5.70;;;;;;;8.02;92.99;98763.76;1831424;77;21093;-60
2022/10/08 02:23:06;;;;;;;11.85;5.92;;;;;;;8.00;92.98;98761.88;1825938;77;21378;-60
2022/10/08 02:25:56;;;;;;;11.95;5.90;;;;;;;7.99;92.92;98757.59;1816820;77;21113;-60
2022/10/08 02:28:36;;;;;;;10.53;5.67;;;;;;;7.96;92.94;98763.42;1816423;77;20950;-61
2022/10/08 02:31:20;;;;;;;8.88;5.37;;;;;;;7.89;93.10;98769.50;1819441;77;20883;-60
2022/10/08 02:34:10;;;;;;;7.15;5.42;;;;;;;7.91;93.32;98766.59;1833475;77;20923;-61
2022/10/08 02:36:41;;;;;;;9.15;5.80;;;;;;;7.88;93.25;98762.58;1833270;77;20983;-60
2022/10/08 02:39:08;;;;;;;11.08;6.40;;;;;;;7.86;93.41;98761.22;1810231;77;21414;-61
2022/10/08 02:41:42;;;;;;;7.92;5.42;;;;;;;7.82;93.49;98764.13;1817939;77;20868;-60
2022/10/08 02:44:13;;;;;;;11.40;5.30;;;;;;;7.82;93.67;98758.23;1823704;77;21129;-60
2022/10/08 02:46:41;;;;;;;10.48;5.72;;;;;;;7.84;93.62;98757.48;1810898;77;20998;-60
2022/10/08 02:49:15;;;;;;;9.35;5.85;;;;;;;7.82;93.69;98758.79;1824188;77;20960;-60
2022/10/08 02:51:48;;;;;;;11.80;5.90;;;;;;;7.79;93.80;98756.09;1839422;77;21264;-61
2022/10/08 02:54:15;;;;;;;8.75;5.83;;;;;;;7.79;93.81;98757.44;1819764;77;20912;-60
2022/10/08 02:57:01;;;;;;;11.33;5.40;;;;;;;7.79;93.89;98756.63;1793532;77;20931;-60
2022/10/08 02:59:27;;;;;;;9.30;5.55;;;;;;;7.75;93.93;98753.64;1823514;77;21569;-61
2022/10/08 03:02:01;;;;;;;10.43;5.00;;;;;;;7.73;93.91;98755.76;1822050;77;20876;-61
2022/10/08 03:04:48;;;;;;;9.68;5.53;;;;;;;7.67;94.09;98752.78;1801668;78;21230;-61
2022/10/08 03:07:14;;;;;;;10.68;5.60;;;;;;;7.66;94.22;98745.83;1754531;80;20881;-60
2022/10/08 03:09:44;;;;;;;11.48;5.22;;;;;;;7.65;94.37;98749.57;1745201;80;20928;-61
2022/10/08 03:12:10;;;;;;;11.57;5.60;;;;;;;7.65;94.41;98744.23;1760555;80;21494;-60
2022/10/08 03:14:40;;;;;;;11.78;5.58;;;;;;;7.64;94.46;98746.62;1808153;79;20900;-59
2022/10/08 03:17:07;;;;;;;6.87;5.28;;;;;;;7.61;94.52;98749.00;1756093;80;21062;-58
2022/10/08 03:19:34;;;;;;;10.38;5.90;;;;;;;7.57;94.67;98745.50;1789808;79;21041;-59
2022/10/08 03:22:01;;;;;;;12.03;5.72;;;;;;;7.56;94.87;98747.06;1771530;79;20967;-62
2022/10/08 03:24:27;;;;;;;8.73;5.37;;;;;;;7.59;95.06;98747.90;1777730;78;20975;-62
2022/10/08 03:26:54;;;;;;;9.98;5.80;;;;;;;7.60;95.12;98749.52;1772086;79;21431;-61
2022/10/08 03:29:21;;;;;;;9.85;5.67;;;;;;;7.58;95.12;98746.30;1768347;80;21235;-60
2022/10/08 03:31:48;;;;;;;8.78;5.22;;;;;;;7.57;95.16;98743.35;1790688;79;21376;-58
2022/10/08 03:34:16;;;;;;;7.10;5.12;;;;;;;7.56;95.26;98745.73;1790049;79;21424;-59
2022/10/08 03:36:42;;;;;;;10.60;6.10;;;;;;;7.56;95.37;98747.06;1797042;79;20865;-60
2022/10/08 03:39:10;;;;;;;9.83;5.78;;;;;;;7.56;95.51;98744.39;1835027;77;21445;-60
2022/10/08 03:41:37;;;;;;;8.93;5.50;;;;;;;7.56;95.61;98744.39;1826123;77;21994;-61
2022/10/08 03:44:08;;;;;;;8.70;5.70;;;;;;;7.58;95.56;98743.64;1826795;77;21477;-62
2022/10/08 03:46:34;;;;;;;12.58;5.45;;;;;;;7.59;95.58;98749.23;1820347;77;20866;-61
2022/10/08 03:49:01;;;;;;;9.65;5.35;;;;;;;7.57;95.50;98747.34;1821162;77;21050;-61
2022/10/08 03:51:27;;;;;;;9.93;4.85;;;;;;;7.55;95.65;98748.14;1822992;77;20885;-60
2022/10/08 03:53:54;;;;;;;11.03;5.45;;;;;;;7.54;95.67;98742.52;1828832;77;21131;-61
2022/10/08 03:56:25;;;;;;;11.10;6.37;;;;;;;7.52;95.78;98734.78;1814781;77;21074;-61
2022/10/08 03:58:57;;;;;;;8.88;5.70;;;;;;;7.53;95.92;98740.92;1813799;77;21030;-59
2022/10/08 04:01:24;;;;;;;7.78;5.33;;;;;;;7.52;95.89;98737.45;1832202;77;21453;-60
2022/10/08 04:03:51;;;;;;;8.30;5.10;;;;;;;7.50;95.89;98730.75;1821410;77;20990;-60
2022/10/08 04:06:18;;;;;;;11.08;5.15;;;;;;;7.50;95.97;98734.75;1821410;77;21100;-61
2022/10/08 04:08:46;;;;;;;10.13;5.55;;;;;;;7.47;96.05;98732.58;1835823;77;20889;-61
2022/10/08 04:11:14;;;;;;;10.18;5.62;;;;;;;7.46;96.16;98734.47;1813034;77;20991;-61
2022/10/08 04:13:42;;;;;;;11.12;5.62;;;;;;;7.45;96.17;98734.18;1830344;77;21442;-61
2022/10/08 04:16:14;;;;;;;10.08;5.30;;;;;;;7.45;96.26;98739.51;1825855;77;21002;-61
2022/10/08 04:18:40;;;;;;;11.38;5.72;;;;;;;7.43;96.24;98733.63;1819110;77;21113;-60
2022/10/08 04:21:11;;;;;;;8.18;5.12;;;;;;;7.42;96.32;98733.86;1819265;77;21288;-60
2022/10/08 04:23:39;;;;;;;9.45;5.05;;;;;;;7.42;96.37;98732.53;1810133;77;20907;-61
2022/10/08 04:26:07;;;;;;;12.53;6.15;;;;;;;7.41;96.56;98728.27;1828642;77;20879;-60
2022/10/08 04:28:37;;;;;;;11.08;5.30;;;;;;;7.42;96.71;98720.53;1820776;77;20836;-62
2022/10/08 04:31:08;;;;;;;9.08;5.17;;;;;;;7.46;96.73;98723.80;1813866;77;21361;-61
2022/10/08 04:33:35;;;;;;;11.00;5.50;;;;;;;7.47;96.60;98720.59;1828875;77;20876;-61
2022/10/08 04:36:07;;;;;;;13.70;5.17;;;;;;;7.48;96.57;98722.20;1835015;77;20983;-61
2022/10/08 04:38:34;;;;;;;9.55;5.00;;;;;;;7.45;96.64;98719.52;1816567;77;21367;-62
2022/10/08 04:41:09;;;;;;;8.53;5.33;;;;;;;7.45;96.70;98714.71;1810126;77;20977;-62
2022/10/08 04:43:37;;;;;;;8.15;5.35;;;;;;;7.45;96.74;98715.52;1819441;77;21199;-61
2022/10/08 04:46:05;;;;;;;8.90;5.35;;;;;;;7.46;96.75;98715.00;1818336;77;21069;-62
2022/10/08 04:48:32;;;;;;;10.15;5.87;;;;;;;7.45;96.79;98717.38;1795725;77;20975;-61
2022/10/08 04:51:01;;;;;;;8.78;4.95;;;;;;;7.46;96.79;98712.33;1831266;77;20931;-62
2022/10/08 04:53:28;;;;;;;10.23;5.40;;;;;;;7.46;96.77;98705.67;1820910;77;21007;-61
2022/10/08 04:55:55;;;;;;;11.03;5.67;;;;;;;7.46;96.92;98710.48;1810110;77;22087;-61
2022/10/08 04:58:24;;;;;;;7.55;4.95;;;;;;;7.51;97.05;98705.17;1833533;77;20954;-61
2022/10/08 05:00:51;;;;;;;8.28;5.37;;;;;;;7.56;97.00;98708.41;1820793;77;20911;-61
2022/10/08 05:03:17;;;;;;;9.15;6.05;;;;;;;7.56;97.05;98699.08;1827852;77;20928;-60
2022/10/08 05:05:45;;;;;;;12.10;5.92;;;;;;;7.59;97.09;98702.58;1810998;77;20836;-63
2022/10/08 05:08:12;;;;;;;13.25;5.20;;;;;;;7.63;97.06;98699.67;1811523;77;21100;-63
2022/10/08 05:10:47;;;;;;;10.28;5.67;;;;;;;7.66;97.08;98701.84;1793013;78;21071;-63
2022/10/08 05:13:16;;;;;;;16.60;5.62;;;;;;;7.72;97.17;98705.36;1809262;77;20903;-62
2022/10/08 05:15:43;;;;;;;10.43;5.72;;;;;;;7.77;97.28;98701.41;1839272;77;20967;-61
2022/10/08 05:18:11;;;;;;;9.65;6.20;;;;;;;7.81;97.34;98693.16;1821456;77;20971;-61
2022/10/08 05:20:39;;;;;;;12.95;5.50;;;;;;;7.88;97.31;98697.22;1817856;77;20821;-62
2022/10/08 05:23:07;;;;;;;13.10;5.97;;;;;;;7.98;97.31;98697.83;1826648;77;20879;-62
2022/10/08 05:25:34;;;;;;;10.78;5.30;;;;;;;8.06;97.25;98698.14;1819340;77;20869;-62
2022/10/08 05:28:03;;;;;;;12.30;5.80;;;;;;;8.14;97.17;98699.02;1811038;77;20919;-61
2022/10/08 05:30:30;;;;;;;9.80;5.37;;;;;;;8.24;97.16;98697.72;1782254;77;20926;-61
2022/10/08 05:32:56;;;;;;;10.10;5.53;;;;;;;8.36;96.97;98700.77;1792457;78;21144;-62
2022/10/08 05:35:23;;;;;;;14.15;5.10;;;;;;;8.45;96.80;98696.02;1802525;77;21095;-61
2022/10/08 05:37:51;;;;;;;12.73;5.00;;;;;;;8.51;96.51;98702.17;1779406;79;20891;-61
2022/10/08 05:40:19;;;;;;;11.78;4.95;;;;;;;8.58;96.32;98701.41;1795982;79;20926;-61
2022/10/08 05:42:46;;;;;;;10.25;4.72;;;;;;;8.68;96.19;98700.13;1793767;78;21331;-62
2022/10/08 05:45:13;;;;;;;9.35;5.08;;;;;;;8.75;95.91;98696.69;1806273;78;21108;-61
2022/10/08 05:47:40;;;;;;;10.80;4.92;;;;;;;8.87;95.73;98701.28;1782795;79;21513;-61
2022/10/08 05:50:08;;;;;;;8.23;5.20;;;;;;;8.96;95.41;98705.05;1812063;78;20944;-62
2022/10/08 05:52:35;;;;;;;7.80;4.80;;;;;;;9.03;95.13;98700.26;1797378;77;21447;-62
2022/10/08 05:55:04;;;;;;;13.58;5.42;;;;;;;9.09;94.79;98701.86;1804736;78;20927;-61
2022/10/08 05:57:31;;;;;;;10.75;5.35;;;;;;;9.17;94.52;98689.86;1804771;78;21235;-61
2022/10/08 05:59:57;;;;;;;12.05;4.92;;;;;;;9.24;94.35;98691.75;1816840;77;21043;-61
2022/10/08 06:02:25;;;;;;;7.72;4.42;;;;;;;9.33;94.02;98688.82;1799407;77;21010;-61
2022/10/08 06:04:52;;;;;;;11.95;4.80;;;;;;;9.38;93.64;98692.31;1808218;77;20883;-61
2022/10/08 06:07:21;;;;;;;12.00;4.58;;;;;;;9.44;93.42;98692.58;1793977;79;21524;-61
2022/10/08 06:09:47;;;;;;;9.40;4.58;;;;;;;9.53;93.26;98695.02;1797620;78;21239;-62
2022/10/08 06:12:14;;;;;;;18.65;5.33;;;;;;;9.63;93.17;98690.99;1797643;78;21048;-61
2022/10/08 06:14:41;;;;;;;10.68;5.40;;;;;;;9.78;93.03;98693.41;1818211;77;21409;-61
2022/10/08 06:17:08;;;;;;;12.37;5.58;;;;;;;9.90;92.80;98687.25;1762808;79;21341;-62
2022/10/08 06:19:36;;;;;;;11.00;4.60;;;;;;;10.01;92.27;98682.17;1772641;80;20876;-61
2022/10/08 06:22:03;;;;;;;9.95;4.70;;;;;;;10.11;91.95;98684.81;1753681;81;21103;-61
2022/10/08 06:24:30;;;;;;;12.53;4.50;;;;;;;10.23;91.15;98688.04;1747972;81;21066;-61
2022/10/08 06:26:58;;;;;;;10.85;4.50;;;;;;;10.32;90.96;98685.08;1816670;78;20929;-61
2022/10/08 06:29:25;;;;;;;11.53;4.92;;;;;;;10.40;90.38;98685.87;1773149;80;20927;-63
2022/10/08 06:31:52;;;;;;;16.00;4.83;;;;;;;10.49;89.82;98693.61;1748166;81;20951;-61
2022/10/08 06:34:19;;;;;;;12.85;5.00;;;;;;;10.55;89.50;98685.81;1767492;80;21111;-61
2022/10/08 06:36:45;;;;;;;8.45;4.40;;;;;;;10.61;88.92;98690.09;1815745;78;20868;-64
2022/10/08 06:39:14;;;;;;;9.33;4.55;;;;;;;10.66;88.94;98690.08;1774187;80;20916;-62
2022/10/08 06:41:42;;;;;;;9.28;4.40;;;;;;;10.73;88.40;98687.91;1759105;81;21008;-59
2022/10/08 06:44:12;;;;;;;11.45;5.00;;;;;;;10.81;88.41;98684.64;1759116;81;20965;-60
2022/10/08 06:46:39;;;;;;;11.57;4.83;;;;;;;10.94;88.47;98676.55;1761484;81;21223;-61
2022/10/08 06:49:05;;;;;;;13.03;4.50;;;;;;;11.03;88.07;98668.19;1741676;81;20884;-59
2022/10/08 06:51:32;;;;;;;9.90;4.90;;;;;;;11.14;88.00;98676.98;1741492;81;21415;-60
2022/10/08 06:53:58;;;;;;;10.93;4.75;;;;;;;11.24;87.95;98668.87;1741301;81;20913;-60
2022/10/08 06:56:25;;;;;;;11.45;4.37;;;;;;;11.33;87.68;98661.30;1748844;81;21001;-60
2022/10/08 06:58:52;;;;;;;8.68;4.42;;;;;;;11.45;87.57;98667.65;1815389;78;21101;-62
2022/10/08 07:01:25;;;;;;;9.08;4.42;;;;;;;11.56;87.25;98665.17;1774406;80;21360;-61
2022/10/08 07:03:55;;;;;;;12.65;5.08;;;;;;;11.67;87.06;98666.69;1810428;78;20995;-61
2022/10/08 07:06:22;;;;;;;10.05;4.25;;;;;;;11.80;86.82;98655.89;1772397;80;20888;-61
2022/10/08 07:08:59;;;;;;;10.55;4.58;;;;;;;11.93;86.65;98661.40;1808472;78;20830;-61
2022/10/08 07:11:27;;;;;;;10.80;4.10;;;;;;;12.05;86.37;98655.64;1806246;78;20860;-60
2022/10/08 07:13:55;;;;;;;9.98;3.65;;;;;;;12.18;86.35;98658.46;1807915;78;21534;-61
2022/10/08 07:16:24;;;;;;;9.33;4.35;;;;;;;12.34;85.79;98657.77;1774488;80;20999;-60
2022/10/08 07:18:54;;;;;;;13.48;4.80;;;;;;;12.51;85.60;98656.75;1774660;80;20951;-59
2022/10/08 07:21:22;;;;;;;10.43;4.83;;;;;;;12.67;84.44;98653.36;1748803;81;20944;-60
2022/10/08 07:23:48;;;;;;;12.68;4.97;;;;;;;12.82;84.01;98655.31;1814425;78;21356;-62
2022/10/08 07:26:19;;;;;;;8.05;4.08;;;;;;;12.94;83.38;98650.31;1774314;80;20923;-61
2022/10/08 07:28:56;;;;;;;10.23;3.83;;;;;;;13.08;82.97;98646.39;1763030;80;20889;-61
2022/10/08 07:31:26;;;;;;;9.15;3.80;;;;;;;13.23;82.58;98652.91;1755667;80;20925;-60
2022/10/08 07:33:53;;;;;;;5.97;3.60;;;;;;;13.39;82.10;98651.59;1816821;78;21510;-60
2022/10/08 07:36:21;;;;;;;7.75;3.95;;;;;;;13.52;81.39;98646.80;1773687;80;21125;-60
2022/10/08 07:38:59;;;;;;;8.93;3.37;;;;;;;13.65;80.94;98646.61;1766849;80;20920;-62
2022/10/08 07:41:27;;;;;;;8.25;4.12;;;;;;;13.78;81.27;98635.06;1758665;81;20932;-61
2022/10/08 07:43:59;;;;;;;10.85;4.17;;;;;;;13.96;80.42;98636.13;1753477;81;20940;-62
2022/10/08 07:46:28;;;;;;;10.90;4.25;;;;;;;14.07;79.95;98632.14;1753502;81;20892;-60
2022/10/08 07:49:03;;;;;;;13.40;4.30;;;;;;;14.16;79.44;98633.85;1747645;81;21107;-62
2022/10/08 07:51:32;;;;;;;5.87;3.83;;;;;;;14.26;79.20;98626.94;1752191;81;21503;-61
2022/10/08 07:53:59;;;;;;;7.47;4.20;;;;;;;14.39;79.20;98626.70;1753584;81;21444;-62
2022/10/08 07:56:26;;;;;;;8.13;4.95;;;;;;;14.52;78.78;98625.92;1753289;81;20884;-61
2022/10/08 07:58:52;;;;;;;13.20;6.17;;;;;;;14.66;78.56;98621.31;1809656;78;20891;-59
2022/10/08 08:01:27;;;;;;;12.85;6.72;;;;;;;14.78;78.58;98613.52;1774392;80;20970;-61
2022/10/08 08:03:55;;;;;;;11.35;6.72;;;;;;;14.91;78.16;98618.08;1811336;78;21010;-62
2022/10/08 08:06:22;;;;;;;12.28;6.22;;;;;;;15.04;78.11;98609.17;1772783;80;21035;-60
2022/10/08 08:08:50;;;;;;;9.38;4.67;;;;;;;15.18;77.89;98606.42;1810692;78;20938;-60
2022/10/08 08:11:17;;;;;;;7.55;4.30;;;;;;;15.34;77.57;98604.16;1812024;78;20919;-59
2022/10/08 08:13:45;;;;;;;6.97;5.40;;;;;;;15.49;76.98;98607.34;1810887;78;21226;-64
2022/10/08 08:16:16;;;;;;;6.90;3.95;;;;;;;15.61;76.01;98601.38;1807012;78;20951;-61
2022/10/08 08:18:46;;;;;;;7.25;4.25;;;;;;;15.74;75.96;98596.45;1816920;78;20903;-59
2022/10/08 08:21:16;;;;;;;5.62;4.40;;;;;;;15.85;75.22;98592.38;1816299;78;20964;-62
2022/10/08 08:23:46;;;;;;;9.33;4.72;;;;;;;15.94;74.32;98588.38;1805536;78;21497;-59
2022/10/08 08:26:19;;;;;;;9.00;5.17;;;;;;;16.03;74.37;98589.22;1769624;80;21101;-62
2022/10/08 08:28:54;;;;;;;7.45;5.08;;;;;;;16.08;73.07;98584.48;1754524;81;21009;-59
2022/10/08 08:31:37;;;;;;;7.22;4.72;;;;;;;16.14;73.38;98588.63;1805745;78;20879;-61
2022/10/08 08:34:07;;;;;;;11.78;5.10;;;;;;;16.22;72.71;98591.94;1811172;78;21114;-59
2022/10/08 08:36:40;;;;;;;9.38;4.65;;;;;;;16.27;73.16;98591.77;1774510;80;21057;-60
2022/10/08 08:39:16;;;;;;;11.88;4.83;;;;;;;16.38;72.30;98584.99;1814383;78;21266;-59
2022/10/08 08:41:55;;;;;;;7.30;4.85;;;;;;;16.46;71.52;98579.38;1805352;78;20966;-62
2022/10/08 08:44:25;;;;;;;6.75;4.47;;;;;;;16.51;72.10;98583.84;1803077;78;20986;-60
2022/10/08 08:47:08;;;;;;;11.35;4.53;;;;;;;16.61;71.49;98588.97;1815420;78;21460;-60
2022/10/08 08:49:52;;;;;;;12.70;4.90;;;;;;;16.67;70.79;98582.31;1820149;78;20929;-62
2022/10/08 08:52:24;;;;;;;8.33;4.83;;;;;;;16.72;71.36;98584.88;1820123;78;20877;-61
2022/10/08 08:54:52;;;;;;;7.22;4.22;;;;;;;16.79;70.90;98585.20;1806047;78;20997;-60
2022/10/08 08:57:37;;;;;;;5.00;4.20;;;;;;;16.85;70.54;98581.22;1817490;77;20841;-62
2022/10/08 09:00:14;;;;;;;7.37;4.42;;;;;;;16.91;70.20;98586.73;1823312;78;21460;-63
2022/10/08 09:02:59;;;;;;;7.05;4.30;;;;;;;16.97;70.16;98577.34;1815867;78;21003;-62
2022/10/08 09:05:30;;;;;;;8.30;5.05;;;;;;;17.06;69.88;98579.48;1820980;78;40044;-60
2022/10/08 09:08:13;;;;;;;8.38;5.12;;;;;;;17.16;70.23;98579.18;1804714;78;20908;-59
2022/10/08 09:10:52;;;;;;;11.10;6.17;;;;;;;17.28;69.84;98579.89;1792519;79;21046;-60
2022/10/08 09:13:38;;;;;;;7.72;4.67;;;;;;;17.40;69.46;98580.84;1813006;78;20973;-61
2022/10/08 09:16:05;;;;;;;9.55;4.58;;;;;;;17.50;67.97;98584.56;1827360;78;20936;-63
2022/10/08 09:18:33;;;;;;;8.20;4.40;;;;;;;17.54;67.88;98582.85;1826092;78;21160;-64
2022/10/08 09:21:00;;;;;;;10.93;4.50;;;;;;;17.56;67.37;98579.27;1804703;78;21512;-61
2022/10/08 09:23:27;;;;;;;8.60;4.30;;;;;;;17.61;67.37;98584.52;1813813;78;20919;-61
2022/10/08 09:26:12;;;;;;;5.72;3.75;;;;;;;17.64;66.79;98585.20;1823439;78;21371;-60
2022/10/08 09:28:46;;;;;;;6.62;4.37;;;;;;;17.66;66.01;98575.42;1816029;78;20914;-60
2022/10/08 09:31:41;;;;;;;9.20;4.35;;;;;;;17.70;66.54;98570.94;1820779;78;21184;-61
2022/10/08 09:34:15;;;;;;;7.00;4.30;;;;;;;17.76;66.13;98582.63;1817108;78;21536;-61
2022/10/08 09:36:56;;;;;;;;;;;;;;;17.84;66.00;98566.67;1830607;77;20913;-61
2022/10/08 09:39:29;;;;;;;11.25;8.15;;;;;;;17.91;65.35;98565.63;1824947;78;20088;-61
2022/10/08 09:42:13;;;;;;;19.00;12.43;;;;;;;17.94;65.73;98559.56;1816467;78;20900;-60
2022/10/08 09:44:50;;;;;;;10.10;8.00;;;;;;;17.99;64.44;98561.55;1822035;78;20872;-64
2022/10/08 09:47:21;;;;;;;12.35;6.53;;;;;;;18.02;64.35;98556.00;1828427;78;20868;-60
2022/10/08 09:50:08;;;;;;;11.50;9.85;;;;;;;18.05;64.93;98554.81;1812183;78;20956;-61
2022/10/08 09:52:37;;;;;;;8.05;6.00;;;;;;;18.13;64.61;98550.48;1820961;78;20872;-61
2022/10/08 09:55:20;;;;;;;9.33;5.85;;;;;;;18.25;64.01;98541.10;1768858;78;20999;-61
2022/10/08 09:57:50;;;;;;;11.78;4.55;;;;;;;18.30;64.09;98536.85;1824715;78;21242;-64
2022/10/08 10:00:34;;;;;;;7.22;4.33;;;;;;;18.35;63.06;98528.50;1804568;78;20832;-63
2022/10/08 10:03:02;;;;;;;7.28;4.40;;;;;;;18.35;63.40;98525.80;1810815;78;21002;-64
2022/10/08 10:05:31;;;;;;;8.40;4.12;;;;;;;18.38;62.66;98522.44;1826755;78;20972;-62
2022/10/08 10:07:58;;;;;;;9.35;4.30;;;;;;;18.41;62.04;98520.43;1827861;78;20818;-63
2022/10/08 10:10:32;;;;;;;7.67;4.15;;;;;;;18.46;61.73;98516.77;1823837;78;21275;-60
2022/10/08 10:13:20;;;;;;;6.00;4.17;;;;;;;18.50;61.05;98508.99;1820886;78;20869;-61
2022/10/08 10:16:00;;;;;;;7.35;4.08;;;;;;;18.54;60.95;98503.13;1807779;78;21391;-60
2022/10/08 10:18:35;;;;;;;6.40;4.00;;;;;;;18.63;60.83;98502.51;1815190;78;21082;-64
2022/10/08 10:21:05;;;;;;;11.63;4.12;;;;;;;18.69;59.80;98505.27;1826578;78;20995;-65
2022/10/08 10:23:37;;;;;;;7.97;4.03;;;;;;;18.70;59.62;98494.64;1823496;77;21135;-64
2022/10/08 10:26:10;;;;;;;6.35;3.60;;;;;;;18.71;59.36;98486.73;1828572;78;20837;-64
2022/10/08 10:28:51;;;;;;;5.60;3.80;;;;;;;18.74;58.58;98495.58;1801129;78;21018;-61
2022/10/08 10:31:35;;;;;;;8.45;3.95;;;;;;;18.77;58.75;98490.06;1820565;78;20964;-59
2022/10/08 10:34:12;;;;;;;6.78;3.25;;;;;;;18.82;58.11;98489.28;1812215;78;20825;-61
2022/10/08 10:36:48;;;;;;;4.85;3.10;;;;;;;18.90;57.70;98488.98;1823339;78;21207;-63
2022/10/08 10:39:33;;;;;;;;;;;;;;;18.94;58.41;98484.47;1818139;78;20891;-67
2022/10/08 10:42:15;;;;;;;4.97;3.10;;;;;;;19.03;57.28;98479.20;1766511;78;20108;-62
2022/10/08 10:44:56;;;;;;;9.18;3.22;;;;;;;19.11;56.77;98476.98;1828099;78;21451;-63
2022/10/08 10:47:27;;;;;;;4.55;3.10;;;;;;;19.18;56.29;98481.06;1825957;78;20983;-61
2022/10/08 10:49:54;;;;;;;6.85;3.45;;;;;;;19.19;57.28;98473.16;1820282;78;21163;-60
2022/10/08 10:52:55;;;;;;;6.20;3.60;;;;;;;19.28;56.40;98469.78;1828212;78;20916;-65
2022/10/08 10:55:29;;;;;;;6.55;3.22;;;;;;;19.36;56.06;98466.23;1826585;78;20885;-64
2022/10/08 10:58:38;;;;;;;4.10;3.07;;;;;;;19.42;55.57;98462.16;1823132;78;20912;-62
2022/10/08 11:01:34;;;;;;;5.28;3.10;;;;;;;19.49;56.11;98451.53;1822928;78;20872;-60
2022/10/08 11:04:14;;;;;;;5.80;2.85;;;;;;;19.60;54.98;98457.55;1824198;78;21107;-63
2022/10/08 11:06:57;;;;;;;5.03;2.90;;;;;;;19.64;53.69;98443.51;1822414;77;21391;-61
2022/10/08 11:09:47;;;;;;;8.55;2.80;;;;;;;19.68;53.42;98439.56;1820505;77;20876;-63
2022/10/08 11:12:31;;;;;;;5.60;2.72;;;;;;;19.75;53.52;98433.80;1823856;78;21025;-62
2022/10/08 11:15:23;;;;;;;6.53;2.80;;;;;;;19.86;53.30;98426.53;1803797;78;20959;-61
2022/10/08 11:18:13;;;;;;;7.12;2.60;;;;;;;19.96;52.78;98424.16;1800582;78;21088;-61
2022/10/08 11:20:54;;;;;;;4.17;2.75;;;;;;;20.02;53.00;98418.71;1816422;78;21019;-59
2022/10/08 11:23:45;;;;;;;6.85;3.02;;;;;;;20.11;52.78;98419.41;1816603;78;20996;-60
2022/10/08 11:26:33;;;;;;;4.80;2.50;;;;;;;20.30;53.30;98417.48;1824148;78;20960;-61
2022/10/08 11:29:35;;;;;;;3.12;2.47;;;;;;;20.49;51.44;98414.14;1827542;78;21407;-60
2022/10/08 11:32:02;;;;;;;3.42;2.40;;;;;;;20.57;50.94;98411.27;1820724;78;21244;-63
2022/10/08 11:34:32;;;;;;;3.67;2.20;;;;;;;20.65;50.37;98407.63;1804839;78;20836;-62
2022/10/08 11:37:22;;;;;;;7.72;3.02;;;;;;;20.69;51.01;98404.99;1819911;78;20864;-61
2022/10/08 11:40:22;;;;;;;3.65;2.42;;;;;;;20.75;50.11;98396.82;1821603;78;20884;-63
2022/10/08 11:43:06;;;;;;;3.62;2.35;;;;;;;20.79;48.88;98401.79;1827897;77;21439;-62
2022/10/08 11:45:38;;;;;;;3.83;2.55;;;;;;;20.87;48.20;98395.38;1803776;78;22100;-61
2022/10/08 11:48:33;;;;;;;3.08;2.60;;;;;;;20.92;48.60;98391.85;1827348;78;20901;-64
2022/10/08 11:51:24;;;;;;;3.67;2.62;;;;;;;21.02;48.32;98385.91;1817032;78;21361;-61
2022/10/08 11:54:24;;;;;;;4.25;2.60;;;;;;;21.16;47.60;98386.88;1828209;78;20968;-66
2022/10/08 11:57:12;;;;;;;7.62;3.12;;;;;;;21.25;47.54;98384.77;1822920;78;21541;-63
2022/10/08 11:59:48;;;;;;;4.08;3.05;;;;;;;21.37;47.63;98383.33;1820073;78;21223;-62
2022/10/08 12:02:35;;;;;;;4.40;2.90;;;;;;;21.49;47.71;98379.16;1820708;78;20891;-62